Time;durP1;ratioP1;P1;durP2;ratioP2;P2;SDS_P1;SDS_P2;PMS_P1;PMS_P2;Temp;Humidity;BMP_temperature;BMP_pressure;BME280_temperature;BME280_humidity;BME280_pressure;Samples;Min_cycle;Max_cycle;Signal;HPM_P1;HPM_P2
2022/04/24 00:00:19;;;;;;;12.63;5.07;;;;;;;38.84;42.48;100816.38;5050925;28;20485;-69
2022/04/24 00:02:45;;;;;;;12.87;4.07;;;;;;;38.76;42.96;100807.09;5050945;28;20434;-69
2022/04/24 00:05:12;;;;;;;9.73;4.17;;;;;;;38.62;42.96;100799.06;5050973;28;20489;-69
2022/04/24 00:07:38;;;;;;;9.87;4.33;;;;;;;38.75;42.81;100786.53;5051974;28;20462;-69
2022/04/24 00:10:05;;;;;;;12.60;3.23;;;;;;;38.69;42.73;100788.56;5050834;28;20429;-69
2022/04/24 00:12:31;;;;;;;8.90;3.03;;;;;;;38.66;42.99;100782.94;5050476;28;20517;-69
2022/04/24 00:14:57;;;;;;;10.93;3.57;;;;;;;38.72;42.51;100789.84;5052579;28;20399;-69
2022/04/24 00:17:23;;;;;;;18.80;4.03;;;;;;;39.01;41.73;100793.94;5052037;28;20486;-71
2022/04/24 00:19:50;;;;;;;10.83;4.70;;;;;;;38.83;42.35;100796.59;5050611;28;20455;-70
2022/04/24 00:22:16;;;;;;;9.17;3.37;;;;;;;38.90;42.23;100802.34;5062662;28;20422;-69
2022/04/24 00:24:42;;;;;;;9.77;3.73;;;;;;;38.87;42.06;100802.22;5067950;28;20424;-71
2022/04/24 00:27:09;;;;;;;9.87;3.20;;;;;;;38.96;42.54;100800.31;5067827;28;20420;-69
2022/04/24 00:29:36;;;;;;;9.37;2.90;;;;;;;38.99;42.26;100810.53;5064205;28;20415;-70
2022/04/24 00:32:03;;;;;;;10.00;3.03;;;;;;;38.85;42.14;100810.63;5067224;28;20430;-70
2022/04/24 00:34:29;;;;;;;7.30;2.70;;;;;;;38.82;42.22;100794.22;5059930;28;20457;-71
2022/04/24 00:36:55;;;;;;;8.73;3.40;;;;;;;38.91;42.47;100787.69;5067249;28;20414;-71
2022/04/24 00:39:21;;;;;;;13.17;6.13;;;;;;;38.66;43.39;100775.59;5067096;28;20457;-72
2022/04/24 00:41:49;;;;;;;9.10;3.87;;;;;;;39.01;42.82;100773.03;5070719;28;20438;-71
2022/04/24 00:44:17;;;;;;;10.53;3.60;;;;;;;38.78;43.45;100774.25;5070011;28;20449;-70
2022/04/24 00:47:16;;;;;;;20.13;3.90;;;;;;;38.59;43.52;100769.03;5070654;28;20425;-71
2022/04/24 00:49:42;;;;;;;8.57;3.17;;;;;;;38.69;43.00;100758.72;5048320;28;20504;-70
2022/04/24 00:52:10;;;;;;;8.77;3.10;;;;;;;38.47;44.32;100749.88;5069096;28;20856;-71
2022/04/24 00:54:36;;;;;;;11.47;3.60;;;;;;;38.50;43.82;100739.22;5067890;28;20453;-71
2022/04/24 00:57:05;;;;;;;9.00;3.13;;;;;;;38.42;43.59;100737.25;5071263;28;21199;-71
2022/04/24 00:59:31;;;;;;;8.07;2.80;;;;;;;38.39;44.38;100740.59;5073954;28;20455;-71
2022/04/24 01:01:59;;;;;;;12.00;3.40;;;;;;;38.25;44.52;100753.41;5073991;28;20487;-70
2022/04/24 01:04:25;;;;;;;7.57;3.17;;;;;;;38.37;44.39;100750.94;5072518;28;20424;-71
2022/04/24 01:06:51;;;;;;;10.23;4.10;;;;;;;38.46;43.91;100738.22;5072856;28;20453;-71
2022/04/24 01:09:23;;;;;;;6.47;2.90;;;;;;;38.51;44.22;100746.22;5074103;28;20446;-71
2022/04/24 01:11:54;;;;;;;11.70;4.07;;;;;;;38.69;44.01;100737.03;5073990;28;20473;-71
2022/04/24 01:14:26;;;;;;;9.73;3.83;;;;;;;38.57;44.28;100736.84;5074195;28;20437;-72
2022/04/24 01:16:52;;;;;;;15.07;4.50;;;;;;;38.38;44.49;100741.72;5074182;28;20421;-71
2022/04/24 01:19:20;;;;;;;10.53;3.67;;;;;;;38.16;45.23;100735.19;5057490;28;20462;-70
2022/04/24 01:21:48;;;;;;;7.90;3.67;;;;;;;38.34;44.15;100741.53;5075367;28;20406;-69
2022/04/24 01:24:17;;;;;;;8.40;3.37;;;;;;;38.12;44.95;100739.63;5074030;28;20890;-69
2022/04/24 01:26:43;;;;;;;11.10;2.90;;;;;;;38.22;45.40;100743.19;5073825;28;20575;-71
2022/04/24 01:29:11;;;;;;;13.93;3.33;;;;;;;38.35;45.25;100745.03;5073820;28;20422;-71
2022/04/24 01:31:38;;;;;;;12.97;3.20;;;;;;;38.13;45.74;100741.22;5073828;28;20422;-71
2022/04/24 01:34:05;;;;;;;7.33;2.50;;;;;;;38.26;45.41;100741.47;5073714;28;20807;-71
2022/04/24 01:36:31;;;;;;;8.20;3.37;;;;;;;38.23;45.44;100744.78;5057017;28;20779;-71
2022/04/24 01:38:57;;;;;;;12.40;3.67;;;;;;;38.27;45.43;100732.25;5073508;28;20461;-71
2022/04/24 01:41:23;;;;;;;13.17;3.40;;;;;;;38.31;45.31;100730.53;5073526;28;20429;-72
2022/04/24 01:43:50;;;;;;;11.87;3.50;;;;;;;38.29;45.49;100721.88;5073589;28;20441;-71
2022/04/24 01:46:16;;;;;;;11.90;3.07;;;;;;;38.27;45.83;100705.16;5073519;28;20421;-72
2022/04/24 01:48:42;;;;;;;9.10;3.73;;;;;;;38.32;45.22;100699.59;5073319;28;20442;-69
2022/04/24 01:51:10;;;;;;;10.03;4.13;;;;;;;38.34;45.11;100694.66;5073501;28;20512;-71
2022/04/24 01:53:37;;;;;;;10.03;4.50;;;;;;;38.39;45.18;100697.25;5073344;28;20432;-70
2022/04/24 01:56:07;;;;;;;8.17;3.27;;;;;;;38.60;44.88;100690.13;5073257;28;20441;-70
2022/04/24 01:58:35;;;;;;;18.23;3.87;;;;;;;38.56;44.76;100685.66;5056702;28;20476;-71
2022/04/24 02:01:02;;;;;;;14.43;4.13;;;;;;;38.49;45.03;100680.72;5056878;28;20512;-71
2022/04/24 02:03:29;;;;;;;11.77;3.87;;;;;;;38.56;44.89;100672.09;5072966;28;20496;-71
2022/04/24 02:05:56;;;;;;;9.93;4.30;;;;;;;38.64;44.74;100671.31;5056656;28;20417;-71
2022/04/24 02:08:23;;;;;;;10.17;3.83;;;;;;;38.57;44.62;100673.69;5039877;28;20437;-71
2022/04/24 02:10:49;;;;;;;27.73;5.27;;;;;;;38.39;44.91;100673.66;5074233;28;20522;-71
2022/04/24 02:13:16;;;;;;;9.60;3.57;;;;;;;38.55;44.53;100665.91;5074435;28;20427;-71
2022/04/24 02:15:43;;;;;;;9.50;3.63;;;;;;;38.42;45.01;100661.38;5073051;28;20935;-71
2022/04/24 02:18:09;;;;;;;8.07;3.90;;;;;;;38.65;44.48;100654.72;5056372;28;20926;-72
2022/04/24 02:20:35;;;;;;;11.10;4.83;;;;;;;38.60;44.33;100640.53;5072838;28;20844;-71
2022/04/24 02:23:02;;;;;;;12.60;3.60;;;;;;;38.43;44.04;100641.31;5072891;28;20453;-71
2022/04/24 02:25:30;;;;;;;9.93;3.37;;;;;;;38.46;44.41;100642.56;5072870;28;20929;-71
2022/04/24 02:27:57;;;;;;;11.90;6.63;;;;;;;38.42;44.97;100637.78;5074111;28;20755;-70
2022/04/24 02:30:25;;;;;;;9.43;4.30;;;;;;;38.42;44.49;100631.56;5056086;28;20418;-72
2022/04/24 02:32:51;;;;;;;13.67;3.87;;;;;;;38.44;44.60;100632.06;5056126;28;20417;-71
2022/04/24 02:35:19;;;;;;;10.37;3.77;;;;;;;38.50;44.58;100625.38;5072631;28;20410;-71
2022/04/24 02:37:45;;;;;;;18.70;4.13;;;;;;;38.53;44.44;100629.34;5073950;28;20401;-71
2022/04/24 02:40:11;;;;;;;14.30;4.53;;;;;;;38.60;43.86;100635.91;5073863;28;20574;-71
2022/04/24 02:42:39;;;;;;;7.67;3.30;;;;;;;38.49;44.32;100629.22;5072462;28;20509;-71
2022/04/24 02:45:07;;;;;;;8.20;3.50;;;;;;;38.24;44.87;100638.00;5072420;28;20468;-71
2022/04/24 02:47:34;;;;;;;13.00;3.33;;;;;;;38.32;45.27;100643.50;5072342;28;20422;-71
2022/04/24 02:50:01;;;;;;;11.37;5.03;;;;;;;38.50;44.52;100652.47;5073739;28;20475;-69
2022/04/24 02:52:27;;;;;;;13.80;3.70;;;;;;;38.45;44.63;100658.03;5073719;28;20410;-71
2022/04/24 02:54:54;;;;;;;8.67;3.33;;;;;;;38.55;44.69;100651.50;5072233;28;20437;-71
2022/04/24 02:57:21;;;;;;;9.03;4.13;;;;;;;38.47;44.76;100646.88;5072182;28;20513;-71
2022/04/24 02:59:50;;;;;;;10.00;3.63;;;;;;;38.56;44.35;100658.56;5071892;28;20845;-71
2022/04/24 03:02:17;;;;;;;5.50;2.90;;;;;;;38.46;44.35;100659.63;5072090;28;20428;-70
2022/04/24 03:04:45;;;;;;;9.40;3.37;;;;;;;38.40;44.70;100640.00;5039055;28;20417;-70
2022/04/24 03:07:12;;;;;;;15.50;4.00;;;;;;;38.21;44.92;100630.53;5071917;28;20502;-69
2022/04/24 03:09:39;;;;;;;14.30;4.47;;;;;;;38.29;45.37;100627.06;5072141;28;20398;-70
2022/04/24 03:12:05;;;;;;;7.80;4.30;;;;;;;38.35;45.23;100636.66;5071646;28;20476;-71
2022/04/24 03:14:31;;;;;;;10.83;3.30;;;;;;;38.40;43.98;100631.09;5071838;28;20521;-69
2022/04/24 03:16:57;;;;;;;11.93;4.40;;;;;;;38.25;44.54;100639.63;5073217;28;20398;-71
2022/04/24 03:19:24;;;;;;;8.90;3.60;;;;;;;38.27;44.63;100642.84;5070986;28;20466;-71
2022/04/24 03:21:50;;;;;;;9.80;4.93;;;;;;;38.34;45.14;100635.06;5071798;28;20433;-71
2022/04/24 03:24:16;;;;;;;8.90;3.73;;;;;;;38.01;44.95;100643.50;5072729;28;20440;-71
2022/04/24 03:26:42;;;;;;;15.00;4.30;;;;;;;38.21;44.86;100639.44;5071692;28;20512;-71
2022/04/24 03:29:08;;;;;;;10.80;3.83;;;;;;;38.22;44.58;100635.63;5071404;28;20453;-71
2022/04/24 03:31:35;;;;;;;8.90;3.93;;;;;;;38.09;45.23;100625.69;5071476;28;20437;-71
2022/04/24 03:34:02;;;;;;;11.43;5.03;;;;;;;38.21;45.41;100628.59;5071378;28;20463;-71
2022/04/24 03:36:28;;;;;;;14.07;4.40;;;;;;;38.26;44.94;100622.25;5071442;28;20575;-71
2022/04/24 03:38:54;;;;;;;14.10;3.87;;;;;;;38.37;44.77;100613.56;5071345;28;20530;-69
2022/04/24 03:41:20;;;;;;;13.30;4.30;;;;;;;38.35;44.73;100625.81;5072661;28;20421;-70
2022/04/24 03:43:46;;;;;;;9.23;4.10;;;;;;;38.06;45.18;100612.75;5071198;28;21051;-71
2022/04/24 03:46:12;;;;;;;11.53;4.67;;;;;;;38.23;44.99;100606.63;5054559;28;20972;-69
2022/04/24 03:48:39;;;;;;;11.50;4.50;;;;;;;38.33;44.68;100603.66;5072478;28;20772;-71
2022/04/24 03:51:07;;;;;;;19.00;5.10;;;;;;;38.20;45.47;100594.50;5072560;28;20402;-71
2022/04/24 03:53:33;;;;;;;18.40;4.27;;;;;;;38.16;45.28;100601.66;5070989;28;20453;-71
2022/04/24 03:56:00;;;;;;;12.33;4.60;;;;;;;38.06;45.87;100597.34;5071032;28;20422;-71
2022/04/24 03:58:26;;;;;;;15.20;4.10;;;;;;;38.11;44.87;100604.50;5054394;28;20446;-69
2022/04/24 04:00:52;;;;;;;14.43;4.60;;;;;;;38.23;44.40;100614.75;5070927;28;20508;-71
2022/04/24 04:03:18;;;;;;;9.93;3.20;;;;;;;38.28;44.68;100626.25;5054104;28;20441;-72
2022/04/24 04:05:44;;;;;;;9.33;3.77;;;;;;;38.04;44.38;100628.53;5054453;28;20512;-71
2022/04/24 04:08:11;;;;;;;11.03;4.70;;;;;;;38.18;44.66;100646.31;5070732;28;20426;-71
2022/04/24 04:10:37;;;;;;;8.97;4.13;;;;;;;38.03;45.19;100641.28;5070663;28;20561;-71
2022/04/24 04:13:10;;;;;;;9.33;4.27;;;;;;;37.90;45.55;100645.69;5072001;28;20463;-72
2022/04/24 04:15:36;;;;;;;12.27;3.77;;;;;;;38.21;44.70;100650.28;5072127;28;20410;-71
2022/04/24 04:18:03;;;;;;;17.80;6.00;;;;;;;38.20;45.07;100662.22;5071924;28;20410;-72
2022/04/24 04:20:29;;;;;;;12.20;4.40;;;;;;;38.16;44.90;100656.63;5054123;28;20457;-70
2022/04/24 04:22:55;;;;;;;13.13;4.40;;;;;;;38.23;44.97;100644.53;5070731;28;20426;-70
2022/04/24 04:25:24;;;;;;;8.77;4.53;;;;;;;38.26;44.68;100633.09;5070862;28;20436;-70
2022/04/24 04:27:51;;;;;;;13.60;4.27;;;;;;;38.37;44.67;100639.84;5070741;28;20985;-70
2022/04/24 04:30:18;;;;;;;11.40;4.43;;;;;;;38.45;44.71;100655.34;5070299;28;20803;-69
2022/04/24 04:32:44;;;;;;;11.07;5.03;;;;;;;38.49;44.40;100661.72;5071981;28;20430;-70
2022/04/24 04:35:10;;;;;;;13.53;4.47;;;;;;;38.35;44.65;100650.19;5070575;28;20429;-69
2022/04/24 04:37:39;;;;;;;18.73;4.53;;;;;;;38.30;44.70;100647.63;5087357;28;20425;-71
2022/04/24 04:40:06;;;;;;;12.73;3.83;;;;;;;38.16;44.88;100651.22;5070466;28;20469;-71
2022/04/24 04:42:33;;;;;;;13.70;3.13;;;;;;;37.96;45.25;100650.97;5070334;28;20514;-70
2022/04/24 04:45:00;;;;;;;9.13;3.40;;;;;;;38.04;45.22;100653.72;5070376;28;20532;-69
2022/04/24 04:47:30;;;;;;;10.07;4.43;;;;;;;37.87;45.10;100664.44;5070770;28;20434;-70
2022/04/24 04:49:56;;;;;;;11.67;4.30;;;;;;;38.12;44.64;100658.38;5070418;28;20519;-70
2022/04/24 04:52:23;;;;;;;11.73;3.93;;;;;;;38.03;44.60;100656.72;5070354;28;20418;-69
2022/04/24 04:54:49;;;;;;;8.77;4.53;;;;;;;38.14;45.09;100656.16;5070343;28;20487;-69
2022/04/24 04:57:16;;;;;;;12.83;3.60;;;;;;;38.35;44.58;100652.91;5070576;28;20402;-69
2022/04/24 04:59:43;;;;;;;10.07;4.80;;;;;;;38.25;45.11;100653.19;5071599;28;20946;-69
2022/04/24 05:02:09;;;;;;;19.30;7.50;;;;;;;38.21;44.40;100644.88;5071605;28;20789;-71
2022/04/24 05:04:35;;;;;;;7.70;4.10;;;;;;;38.42;44.20;100642.41;5070413;28;20453;-71
2022/04/24 05:07:01;;;;;;;13.23;4.07;;;;;;;38.16;44.32;100643.09;5070513;28;20417;-69
2022/04/24 05:09:28;;;;;;;8.70;4.17;;;;;;;38.36;44.22;100643.66;5070316;28;20492;-71
2022/04/24 05:11:54;;;;;;;10.83;3.87;;;;;;;38.44;44.56;100657.25;5069998;28;20518;-69
2022/04/24 05:14:20;;;;;;;27.50;5.97;;;;;;;38.25;45.04;100651.25;5070176;28;20418;-69
2022/04/24 05:16:46;;;;;;;19.30;4.20;;;;;;;38.17;44.81;100657.41;5053680;28;20556;-70
2022/04/24 05:19:12;;;;;;;10.90;4.53;;;;;;;38.18;45.47;100659.84;5069987;28;20464;-69
2022/04/24 05:21:39;;;;;;;8.33;5.43;;;;;;;38.00;45.34;100660.88;5070152;28;20430;-70
2022/04/24 05:24:05;;;;;;;12.37;4.70;;;;;;;37.99;44.96;100650.34;5070057;28;20473;-69
2022/04/24 05:26:32;;;;;;;21.40;6.53;;;;;;;38.15;44.70;100660.44;5070002;28;20421;-69
2022/04/24 05:28:58;;;;;;;12.07;5.30;;;;;;;38.14;45.28;100666.19;5070391;28;20433;-69
2022/04/24 05:31:24;;;;;;;10.77;4.30;;;;;;;38.01;45.49;100678.72;5069969;28;20422;-69
2022/04/24 05:33:50;;;;;;;13.93;5.97;;;;;;;38.24;45.23;100681.34;5069856;28;20506;-71
2022/04/24 05:36:16;;;;;;;12.33;4.20;;;;;;;38.15;45.18;100694.88;5069960;28;20518;-72
2022/04/24 05:38:42;;;;;;;9.53;4.33;;;;;;;37.98;45.93;100697.47;5069822;28;20472;-71
2022/04/24 05:41:08;;;;;;;17.60;4.77;;;;;;;37.78;45.96;100693.34;5069832;28;20961;-70
2022/04/24 05:43:35;;;;;;;7.10;4.30;;;;;;;37.73;46.30;100697.00;5072958;28;20445;-70
2022/04/24 05:46:01;;;;;;;18.73;5.70;;;;;;;37.65;46.79;100703.94;5073462;28;20444;-70
2022/04/24 05:48:27;;;;;;;8.50;3.60;;;;;;;37.32;46.88;100689.84;5073481;28;20425;-71
2022/04/24 05:50:53;;;;;;;9.53;3.97;;;;;;;37.55;46.61;100696.06;5073296;28;20583;-71
2022/04/24 05:53:19;;;;;;;9.17;5.30;;;;;;;37.76;46.44;100687.47;5073500;28;20458;-69
2022/04/24 05:55:46;;;;;;;12.63;4.40;;;;;;;37.78;47.00;100687.94;5073332;28;20418;-71
2022/04/24 05:58:12;;;;;;;13.37;4.80;;;;;;;37.73;46.51;100688.06;5073195;28;20426;-71
2022/04/24 06:00:38;;;;;;;10.60;4.83;;;;;;;37.74;46.84;100693.16;5056670;28;20981;-71
2022/04/24 06:03:05;;;;;;;16.03;5.33;;;;;;;37.80;46.83;100689.25;5074514;28;20485;-69
2022/04/24 06:05:31;;;;;;;13.40;6.20;;;;;;;37.91;46.66;100693.31;5073109;28;20413;-70
2022/04/24 06:07:57;;;;;;;11.67;5.70;;;;;;;37.74;46.63;100700.50;5074434;28;20402;-70
2022/04/24 06:10:23;;;;;;;20.87;6.00;;;;;;;37.80;46.30;100704.66;5074224;28;20394;-70
2022/04/24 06:12:52;;;;;;;10.70;4.47;;;;;;;37.96;46.27;100710.53;5074460;28;20414;-70
2022/04/24 06:15:21;;;;;;;13.67;4.80;;;;;;;37.97;46.40;100714.84;5056683;28;20430;-69
2022/04/24 06:17:50;;;;;;;15.23;4.90;;;;;;;37.87;46.21;100737.56;5056704;28;20781;-69
2022/04/24 06:20:17;;;;;;;18.67;7.20;;;;;;;37.97;45.97;100741.94;5072960;28;20445;-71
2022/04/24 06:22:52;;;;;;;11.40;4.10;;;;;;;37.95;46.47;100750.38;5072879;28;20418;-71
2022/04/24 06:25:30;;;;;;;10.73;3.80;;;;;;;37.81;46.36;100750.44;5072615;28;20501;-69
2022/04/24 06:27:56;;;;;;;12.43;5.13;;;;;;;37.89;46.68;100751.59;5056275;28;20932;-69
2022/04/24 06:30:25;;;;;;;13.37;4.93;;;;;;;37.98;46.39;100757.84;5072649;28;20832;-69
2022/04/24 06:32:52;;;;;;;16.40;6.10;;;;;;;38.03;46.25;100768.56;5051681;28;20510;-71
2022/04/24 06:35:18;;;;;;;14.77;4.93;;;;;;;37.97;46.10;100767.09;5068549;28;20418;-71
2022/04/24 06:37:53;;;;;;;12.23;5.17;;;;;;;37.95;45.95;100784.78;5053887;28;20468;-72
2022/04/24 06:40:19;;;;;;;11.13;4.90;;;;;;;37.79;45.95;100790.50;5069195;28;20454;-71
2022/04/24 06:42:50;;;;;;;13.60;4.93;;;;;;;37.74;45.91;100806.88;5052450;28;20454;-70
2022/04/24 06:45:29;;;;;;;13.30;5.37;;;;;;;37.78;46.25;100818.69;5052691;28;20434;-71
2022/04/24 06:47:57;;;;;;;10.93;4.27;;;;;;;37.71;46.23;100826.44;5051820;28;20399;-71
2022/04/24 06:50:24;;;;;;;10.23;6.17;;;;;;;38.13;45.18;100830.63;5050660;28;20422;-71
2022/04/24 06:53:05;;;;;;;13.90;5.60;;;;;;;37.93;46.13;100833.78;5067005;28;20422;-71
2022/04/24 06:55:33;;;;;;;16.77;5.73;;;;;;;38.04;46.04;100848.72;5067311;28;20422;-71
2022/04/24 06:58:01;;;;;;;10.30;4.90;;;;;;;38.20;45.69;100868.13;5052264;28;20409;-71
2022/04/24 07:00:30;;;;;;;11.17;5.10;;;;;;;38.21;45.63;100877.03;5051427;28;20524;-71
2022/04/24 07:02:56;;;;;;;8.67;3.80;;;;;;;38.36;45.64;100904.56;5052059;28;20421;-69
2022/04/24 07:05:24;;;;;;;13.77;7.13;;;;;;;38.44;45.30;100932.88;5052213;28;20437;-71
2022/04/24 07:07:50;;;;;;;15.90;6.80;;;;;;;38.51;44.91;100946.78;5051996;28;20848;-70
2022/04/24 07:10:17;;;;;;;14.80;5.10;;;;;;;38.50;44.95;100966.06;5067591;28;20858;-71
2022/04/24 07:12:44;;;;;;;22.63;9.87;;;;;;;38.25;45.62;100975.56;5053427;28;20426;-69
2022/04/24 07:15:10;;;;;;;14.43;7.70;;;;;;;38.20;45.34;100989.22;5051906;28;20923;-69
2022/04/24 07:17:36;;;;;;;20.30;8.10;;;;;;;38.09;45.34;101005.69;5053292;28;20399;-71
2022/04/24 07:20:03;;;;;;;15.23;9.07;;;;;;;38.29;45.14;100993.63;5051698;28;20512;-71
2022/04/24 07:22:29;;;;;;;17.77;7.63;;;;;;;38.33;45.28;101001.97;5068277;28;20451;-69
2022/04/24 07:24:55;;;;;;;18.23;6.70;;;;;;;38.21;45.37;101010.59;5051750;28;20509;-70
2022/04/24 07:27:21;;;;;;;11.17;7.17;;;;;;;38.17;45.78;101009.59;5068284;28;20477;-70
2022/04/24 07:29:48;;;;;;;27.70;10.13;;;;;;;38.21;45.50;101007.88;5051636;28;20415;-70
2022/04/24 07:32:16;;;;;;;18.97;9.87;;;;;;;38.04;46.08;101003.09;5052965;28;20422;-67
2022/04/24 07:34:42;;;;;;;18.90;9.60;;;;;;;38.13;45.81;100992.34;5052811;28;20418;-67
2022/04/24 07:37:08;;;;;;;16.43;11.30;;;;;;;38.31;45.57;100987.94;5051361;28;20418;-72
2022/04/24 07:39:34;;;;;;;26.10;12.00;;;;;;;38.45;45.45;100985.97;5051304;28;20528;-68
2022/04/24 07:42:00;;;;;;;20.67;14.80;;;;;;;38.48;45.45;100977.19;5051471;28;20419;-71
2022/04/24 07:44:26;;;;;;;19.90;13.27;;;;;;;38.50;45.39;100966.06;5051237;28;21031;-71
2022/04/24 07:46:53;;;;;;;17.17;7.93;;;;;;;38.49;45.65;100954.44;5052541;28;20988;-71
2022/04/24 07:49:19;;;;;;;12.37;7.70;;;;;;;38.31;45.72;100958.13;5052889;28;20399;-71
2022/04/24 07:51:46;;;;;;;17.83;12.20;;;;;;;37.97;46.53;100937.69;5051367;28;20447;-69
2022/04/24 07:54:12;;;;;;;30.57;14.53;;;;;;;38.06;46.72;100935.88;5051500;28;20425;-68
2022/04/24 07:56:39;;;;;;;25.80;13.30;;;;;;;38.18;46.34;100938.88;5052805;28;20415;-68
2022/04/24 07:59:05;;;;;;;16.90;9.80;;;;;;;38.30;46.21;100946.44;5051078;28;20467;-71
2022/04/24 08:01:31;;;;;;;20.43;10.03;;;;;;;38.37;45.99;100943.34;5051144;28;20449;-72
2022/04/24 08:03:58;;;;;;;13.47;8.17;;;;;;;38.33;45.87;100977.56;5067649;28;21020;-69
2022/04/24 08:06:24;;;;;;;20.03;8.23;;;;;;;38.35;45.62;101016.00;5053098;28;20524;-70
2022/04/24 08:08:50;;;;;;;18.50;9.87;;;;;;;38.03;46.42;101027.78;5069456;28;20816;-68
2022/04/24 08:11:17;;;;;;;19.10;8.27;;;;;;;37.99;46.76;101030.28;5068875;28;20470;-70
2022/04/24 08:13:43;;;;;;;17.13;8.50;;;;;;;38.23;46.45;101026.53;5054237;28;20426;-70
2022/04/24 08:16:09;;;;;;;28.43;8.20;;;;;;;38.25;45.92;101024.34;5072209;28;20863;-70
2022/04/24 08:18:36;;;;;;;24.63;8.13;;;;;;;38.33;45.04;101023.63;5070685;28;20491;-69
2022/04/24 08:21:03;;;;;;;19.63;8.80;;;;;;;38.04;45.47;101019.34;5070785;28;20421;-71
2022/04/24 08:23:29;;;;;;;18.53;8.77;;;;;;;38.23;45.39;101007.56;5072037;28;20422;-71
2022/04/24 08:25:55;;;;;;;21.70;7.90;;;;;;;38.28;45.58;101002.06;5070830;28;20450;-71
2022/04/24 08:28:21;;;;;;;18.77;8.93;;;;;;;38.32;44.93;100997.66;5070596;28;20926;-71
2022/04/24 08:30:48;;;;;;;11.00;6.37;;;;;;;38.30;43.03;100999.84;5070536;28;20808;-69
2022/04/24 08:33:15;;;;;;;13.90;4.90;;;;;;;38.25;43.07;100989.91;5070151;28;20803;-69
2022/04/24 08:35:42;;;;;;;12.40;5.63;;;;;;;38.41;42.48;100982.25;5054030;28;20615;-69
2022/04/24 08:38:08;;;;;;;14.03;5.60;;;;;;;38.20;43.15;100979.19;5059815;28;20513;-71
2022/04/24 08:40:34;;;;;;;7.03;4.13;;;;;;;38.41;43.26;100976.84;5050260;28;21001;-69
2022/04/24 08:43:01;;;;;;;18.70;5.63;;;;;;;38.31;44.16;100963.53;5050425;28;20853;-69
2022/04/24 08:45:29;;;;;;;12.57;5.87;;;;;;;38.20;43.54;100972.97;5051751;28;20434;-68
2022/04/24 08:47:57;;;;;;;9.10;4.20;;;;;;;38.14;43.01;100972.28;5056790;28;20432;-67
2022/04/24 08:50:27;;;;;;;14.57;4.60;;;;;;;38.08;43.45;100977.00;5033554;28;20938;-68
2022/04/24 08:52:58;;;;;;;10.23;4.60;;;;;;;38.23;43.52;100992.09;5048640;28;20910;-69
2022/04/24 08:55:29;;;;;;;19.30;6.23;;;;;;;38.15;43.83;100988.22;5048413;28;20410;-71
2022/04/24 08:57:56;;;;;;;22.87;6.27;;;;;;;38.11;44.19;100989.13;5048634;28;20922;-71
2022/04/24 09:00:22;;;;;;;18.60;6.87;;;;;;;37.98;45.17;100995.38;5048442;28;20458;-71
2022/04/24 09:02:49;;;;;;;11.63;4.43;;;;;;;38.01;45.28;101006.41;5031820;28;21030;-69
2022/04/24 09:05:16;;;;;;;12.10;5.27;;;;;;;38.11;45.44;101024.34;5048408;28;20509;-69
2022/04/24 09:07:46;;;;;;;15.33;8.43;;;;;;;38.01;45.34;101003.72;5049842;28;20397;-71
2022/04/24 09:10:13;;;;;;;16.53;6.87;;;;;;;37.84;46.53;101003.53;5050537;28;20957;-69
2022/04/24 09:12:40;;;;;;;11.37;6.20;;;;;;;37.75;46.90;101000.69;5033738;28;20423;-69
2022/04/24 09:15:08;;;;;;;17.43;7.17;;;;;;;37.81;46.85;100993.28;5050544;28;20450;-68
2022/04/24 09:17:36;;;;;;;12.03;4.73;;;;;;;37.87;46.98;101002.91;5053219;28;20398;-68
2022/04/24 09:20:16;;;;;;;18.20;7.00;;;;;;;37.78;47.30;101007.41;5054026;28;20527;-71
2022/04/24 09:22:43;;;;;;;17.67;6.77;;;;;;;37.97;47.06;101012.72;5054134;28;21010;-70
2022/04/24 09:25:12;;;;;;;10.57;5.60;;;;;;;37.90;47.46;101015.84;5037532;28;20509;-69
2022/04/24 09:27:39;;;;;;;11.20;6.37;;;;;;;37.95;47.33;101004.91;5037593;28;20415;-68
2022/04/24 09:30:10;;;;;;;10.03;5.60;;;;;;;37.83;47.86;100996.50;5053931;28;20493;-71
2022/04/24 09:32:53;;;;;;;15.20;6.27;;;;;;;37.81;48.42;100993.28;5037951;28;20923;-71
2022/04/24 09:35:37;;;;;;;11.97;4.80;;;;;;;37.80;48.88;100984.34;5053904;28;20471;-71
2022/04/24 09:38:14;;;;;;;15.03;8.03;;;;;;;37.82;48.67;100984.88;5053613;28;20814;-69
2022/04/24 09:40:48;;;;;;;18.83;5.40;;;;;;;37.76;48.45;100977.94;5037030;28;20453;-68
2022/04/24 09:43:17;;;;;;;26.10;9.10;;;;;;;38.03;47.46;100987.16;5055021;28;20453;-68
2022/04/24 09:45:54;;;;;;;20.03;8.40;;;;;;;37.64;44.13;100974.94;5054754;28;20973;-71
2022/04/24 09:48:22;;;;;;;34.80;11.77;;;;;;;37.22;44.98;100992.22;5054864;28;20390;-69
2022/04/24 09:50:49;;;;;;;47.17;19.17;;;;;;;37.17;45.46;100990.38;5054691;28;20430;-69
2022/04/24 09:53:19;;;;;;;49.97;18.30;;;;;;;36.82;46.56;100997.16;5053408;28;20431;-69
2022/04/24 09:55:47;;;;;;;48.23;20.90;;;;;;;36.61;45.30;101023.72;5053231;28;20469;-69
2022/04/24 09:58:13;;;;;;;30.43;14.50;;;;;;;36.84;44.67;101036.34;5053407;28;20405;-69
2022/04/24 10:00:41;;;;;;;31.73;13.00;;;;;;;36.95;44.78;101069.44;5054618;28;20434;-68
2022/04/24 10:03:15;;;;;;;31.73;13.50;;;;;;;36.78;45.32;101096.19;5053004;28;20438;-71
2022/04/24 10:05:43;;;;;;;27.73;9.20;;;;;;;36.52;44.06;101101.94;5053155;28;20414;-68
2022/04/24 10:08:09;;;;;;;26.50;9.10;;;;;;;35.93;46.56;101118.53;5053127;28;20418;-67
2022/04/24 10:10:37;;;;;;;22.53;8.70;;;;;;;35.58;47.17;101143.94;5052906;28;20471;-68
2022/04/24 10:13:09;;;;;;;35.03;10.47;;;;;;;35.13;46.26;101199.81;5036572;28;20492;-68
2022/04/24 10:15:43;;;;;;;22.20;10.07;;;;;;;34.73;46.62;101218.53;5053065;28;20433;-68
2022/04/24 10:18:30;;;;;;;19.13;8.70;;;;;;;34.89;46.09;101265.13;5053121;28;20442;-68
2022/04/24 10:20:58;;;;;;;22.93;10.13;;;;;;;34.87;45.70;101283.47;5036634;28;20497;-68
2022/04/24 10:23:30;;;;;;;26.93;10.23;;;;;;;35.09;45.39;101258.06;5052910;28;20469;-71
2022/04/24 10:25:56;;;;;;;17.30;8.57;;;;;;;35.11;44.45;101243.22;5054058;28;20454;-69
2022/04/24 10:28:27;;;;;;;22.27;10.23;;;;;;;35.23;44.56;101237.47;5052432;28;20930;-69
2022/04/24 10:30:59;;;;;;;18.20;9.10;;;;;;;35.27;44.11;101241.22;5052744;28;20505;-68
2022/04/24 10:33:30;;;;;;;26.20;11.50;;;;;;;35.30;44.06;101243.41;5053960;28;20473;-71
2022/04/24 10:36:04;;;;;;;21.67;8.63;;;;;;;35.19;44.48;101244.53;5052603;28;20429;-71
2022/04/24 10:38:32;;;;;;;22.47;8.87;;;;;;;35.22;44.56;101238.56;5054048;28;20402;-69
2022/04/24 10:41:00;;;;;;;19.10;7.00;;;;;;;35.19;44.97;101236.44;5052392;28;20442;-71
2022/04/24 10:43:38;;;;;;;16.43;7.27;;;;;;;35.27;45.16;101225.84;5052493;28;20427;-71
2022/04/24 10:46:24;;;;;;;19.43;9.60;;;;;;;35.42;44.85;101225.00;5052442;28;20422;-71
2022/04/24 10:48:50;;;;;;;11.20;5.43;;;;;;;35.52;44.66;101210.63;5052272;28;20982;-68
2022/04/24 10:51:34;;;;;;;13.97;5.40;;;;;;;35.57;44.47;101209.78;5052468;28;20979;-70
2022/04/24 10:54:05;;;;;;;10.50;5.73;;;;;;;35.88;44.24;101208.44;5052332;28;20943;-71
2022/04/24 10:56:32;;;;;;;14.60;6.43;;;;;;;35.76;44.93;101232.31;5052207;28;20445;-70
2022/04/24 10:59:19;;;;;;;16.03;5.90;;;;;;;35.67;44.25;101228.59;5053578;28;20458;-69
2022/04/24 11:01:49;;;;;;;17.20;7.67;;;;;;;35.70;44.02;101217.25;5053662;28;20399;-68
2022/04/24 11:04:15;;;;;;;33.40;9.07;;;;;;;35.95;43.63;101203.56;5051960;28;20438;-70
2022/04/24 11:06:59;;;;;;;16.60;8.43;;;;;;;36.12;43.10;101188.81;5035660;28;20494;-71
2022/04/24 11:09:35;;;;;;;17.83;7.73;;;;;;;36.17;43.24;101178.78;5053341;28;20421;-69
2022/04/24 11:12:07;;;;;;;22.43;9.60;;;;;;;35.96;44.02;101158.44;5052036;28;20489;-71
2022/04/24 11:14:34;;;;;;;11.57;7.13;;;;;;;35.92;44.31;101160.94;5051955;28;20422;-68
2022/04/24 11:17:03;;;;;;;30.67;6.73;;;;;;;36.02;44.31;101155.41;5035548;28;20446;-68
2022/04/24 11:19:37;;;;;;;21.73;7.97;;;;;;;36.01;44.21;101145.72;5035222;28;20458;-70
2022/04/24 11:22:07;;;;;;;14.10;8.07;;;;;;;35.91;43.93;101134.16;5053209;28;20399;-69